createdAt,value
2022-10-05T00:00:21.096Z,10.33
2022-10-05T00:02:53.289Z,10.31
2022-10-05T00:05:26.493Z,10.32
2022-10-05T00:07:55.761Z,10.31
2022-10-05T00:10:23.801Z,10.31
2022-10-05T00:12:51.382Z,10.29
2022-10-05T00:15:21.694Z,10.28
2022-10-05T00:17:50.695Z,10.27
2022-10-05T00:20:22.664Z,10.24
2022-10-05T00:22:52.789Z,10.24
2022-10-05T00:25:22.222Z,10.23
2022-10-05T00:27:55.651Z,10.23
2022-10-05T00:30:24.780Z,10.24
2022-10-05T00:32:59.295Z,10.25
2022-10-05T00:35:29.101Z,10.27
2022-10-05T00:37:57.121Z,10.28
2022-10-05T00:40:36.287Z,10.31
2022-10-05T00:43:19.112Z,10.33
2022-10-05T00:45:50.942Z,10.34
2022-10-05T00:48:30.712Z,10.37
2022-10-05T00:51:12.769Z,10.39
2022-10-05T00:53:44.135Z,10.42
2022-10-05T00:56:28.074Z,10.44
2022-10-05T00:59:10.162Z,10.47
2022-10-05T01:01:45.135Z,10.50
2022-10-05T01:04:21.383Z,10.51
2022-10-05T01:07:00.336Z,10.54
2022-10-05T01:09:36.117Z,10.54
2022-10-05T01:12:13.937Z,10.57
2022-10-05T01:14:51.535Z,10.60
2022-10-05T01:17:26.134Z,10.61
2022-10-05T01:20:12.371Z,10.63
2022-10-05T01:22:58.953Z,10.63
2022-10-05T01:25:37.710Z,10.65
2022-10-05T01:28:11.098Z,10.67
2022-10-05T01:30:48.422Z,10.71
2022-10-05T01:33:22.336Z,10.73
2022-10-05T01:36:01.509Z,10.77
2022-10-05T01:38:41.127Z,10.80
2022-10-05T01:41:19.852Z,10.81
2022-10-05T01:43:54.262Z,10.83
2022-10-05T01:46:29.525Z,10.85
2022-10-05T01:49:11.871Z,10.86
2022-10-05T01:51:47.087Z,10.87
2022-10-05T01:54:28.565Z,10.90
2022-10-05T01:57:04.744Z,10.92
2022-10-05T01:59:45.877Z,10.93
2022-10-05T02:02:17.241Z,10.96
2022-10-05T02:05:01.850Z,11.00
2022-10-05T02:07:37.679Z,11.04
2022-10-05T02:10:11.927Z,11.05
2022-10-05T02:12:39.752Z,11.06
2022-10-05T02:15:15.032Z,11.07
2022-10-05T02:17:47.380Z,11.09
2022-10-05T02:20:21.944Z,11.11
2022-10-05T02:22:53.828Z,11.12
2022-10-05T02:25:24.304Z,11.15
2022-10-05T02:27:56.986Z,11.18
2022-10-05T02:30:26.144Z,11.19
2022-10-05T02:32:59.866Z,11.24
2022-10-05T02:35:27.870Z,11.28
2022-10-05T02:38:08.790Z,11.32
2022-10-05T02:40:45.821Z,11.35
2022-10-05T02:43:24.338Z,11.38
2022-10-05T02:46:02.288Z,11.43
2022-10-05T02:48:40.988Z,11.50
2022-10-05T02:51:19.002Z,11.56
2022-10-05T02:53:58.350Z,11.59
2022-10-05T02:56:32.483Z,11.62
2022-10-05T02:59:09.107Z,11.65
2022-10-05T03:01:42.652Z,11.70
2022-10-05T03:04:21.494Z,11.71
2022-10-05T03:06:57.675Z,11.73
2022-10-05T03:09:28.101Z,11.75
2022-10-05T03:12:08.798Z,11.81
2022-10-05T03:14:48.663Z,11.85
2022-10-05T03:17:21.908Z,11.88
2022-10-05T03:20:17.112Z,11.92
2022-10-05T03:22:51.368Z,11.93
2022-10-05T03:25:51.751Z,11.99
2022-10-05T03:28:26.349Z,11.99
2022-10-05T03:31:01.629Z,12.01
2022-10-05T03:33:42.426Z,12.05
2022-10-05T03:36:23.293Z,12.06
2022-10-05T03:39:02.239Z,12.07
2022-10-05T03:41:40.199Z,12.09
2022-10-05T03:44:32.200Z,12.15
2022-10-05T03:47:08.874Z,12.14
2022-10-05T03:49:51.039Z,12.17
2022-10-05T03:52:23.113Z,12.19
2022-10-05T03:54:57.608Z,12.19
2022-10-05T03:57:28.150Z,12.19
2022-10-05T04:00:04.263Z,12.22
2022-10-05T04:02:44.698Z,12.23
2022-10-05T04:05:18.564Z,12.24
2022-10-05T04:07:51.728Z,12.26
2022-10-05T04:10:24.971Z,12.29
2022-10-05T04:13:00.383Z,12.29
2022-10-05T04:15:33.281Z,12.31
2022-10-05T04:18:05.416Z,12.31
2022-10-05T04:20:43.329Z,12.32
2022-10-05T04:23:19.747Z,12.33
2022-10-05T04:25:51.559Z,12.34
2022-10-05T04:28:31.952Z,12.31
2022-10-05T04:31:03.720Z,12.31
2022-10-05T04:33:32.937Z,12.30
2022-10-05T04:36:16.506Z,12.30
2022-10-05T04:38:59.224Z,12.28
2022-10-05T04:41:44.164Z,12.26
2022-10-05T04:44:29.787Z,12.25
2022-10-05T04:47:11.805Z,12.22
2022-10-05T04:50:00.136Z,12.19
2022-10-05T04:52:39.126Z,12.18
2022-10-05T04:55:20.300Z,12.17
2022-10-05T04:57:53.456Z,12.15
2022-10-05T05:00:24.296Z,12.12
2022-10-05T05:03:16.536Z,12.13
2022-10-05T05:06:15.435Z,12.11
2022-10-05T05:09:02.792Z,12.13
2022-10-05T05:11:39.368Z,12.11
2022-10-05T05:14:26.637Z,12.11
2022-10-05T05:17:12.885Z,12.12
2022-10-05T05:19:52.174Z,12.11
2022-10-05T05:22:29.911Z,12.13
2022-10-05T05:25:22.974Z,12.14
2022-10-05T05:27:55.782Z,12.13
2022-10-05T05:30:32.728Z,12.16
2022-10-05T05:33:20.636Z,12.19
2022-10-05T05:36:23.191Z,12.20
2022-10-05T05:39:04.835Z,12.22
2022-10-05T05:41:39.447Z,12.22
2022-10-05T05:44:20.564Z,12.26
2022-10-05T05:47:04.392Z,12.24
2022-10-05T05:49:52.680Z,12.27
2022-10-05T05:52:26.576Z,12.27
2022-10-05T05:54:59.528Z,12.31
2022-10-05T05:57:35.508Z,12.30
2022-10-05T06:00:08.339Z,12.34
2022-10-05T06:02:54.268Z,12.36
2022-10-05T06:05:29.729Z,12.37
2022-10-05T06:08:02.150Z,12.39
2022-10-05T06:10:33.649Z,12.43
2022-10-05T06:13:18.888Z,12.42
2022-10-05T06:15:52.455Z,12.45
2022-10-05T06:18:22.669Z,12.49
2022-10-05T06:20:58.374Z,12.48
2022-10-05T06:23:34.093Z,12.51
2022-10-05T06:26:16.114Z,12.55
2022-10-05T06:28:51.607Z,12.58
2022-10-05T06:31:32.415Z,12.61
2022-10-05T06:34:17.092Z,12.63
2022-10-05T06:36:51.310Z,12.65
2022-10-05T06:40:00.926Z,12.71
2022-10-05T06:42:44.920Z,12.72
2022-10-05T06:45:32.115Z,12.76
2022-10-05T06:48:18.048Z,12.78
2022-10-05T06:51:05.306Z,12.82
2022-10-05T06:53:49.822Z,12.84
2022-10-05T06:56:25.086Z,12.88
2022-10-05T06:59:00.478Z,12.92
2022-10-05T07:01:45.339Z,13.00
2022-10-05T07:04:43.785Z,13.01
2022-10-05T07:07:18.118Z,13.05
2022-10-05T07:10:00.154Z,13.07
2022-10-05T07:12:41.290Z,13.13
2022-10-05T07:15:35.262Z,13.18
2022-10-05T07:18:19.128Z,13.21
2022-10-05T07:20:54.244Z,13.26
2022-10-05T07:23:28.967Z,13.31
2022-10-05T07:26:04.869Z,13.35
2022-10-05T07:28:45.082Z,13.40
2022-10-05T07:31:19.453Z,13.45
2022-10-05T07:33:58.672Z,13.48
2022-10-05T07:36:54.939Z,13.53
2022-10-05T07:39:55.447Z,13.58
2022-10-05T07:42:30.486Z,13.61
2022-10-05T07:45:08.226Z,13.67
2022-10-05T07:47:40.095Z,13.73
2022-10-05T07:50:17.220Z,13.79
2022-10-05T07:52:51.084Z,13.81
2022-10-05T07:55:21.308Z,13.85
2022-10-05T07:57:56.827Z,13.90
2022-10-05T08:00:29.891Z,13.93
2022-10-05T08:03:06.162Z,13.97
2022-10-05T08:05:39.157Z,14.04
2022-10-05T08:08:19.632Z,14.06
2022-10-05T08:10:55.080Z,14.11
2022-10-05T08:13:30.616Z,14.14
2022-10-05T08:16:02.295Z,14.19
2022-10-05T08:18:45.130Z,14.20
2022-10-05T08:21:16.859Z,14.23
2022-10-05T08:23:50.072Z,14.27
2022-10-05T08:26:26.486Z,14.30
2022-10-05T08:29:06.191Z,14.35
2022-10-05T08:31:38.672Z,14.37
2022-10-05T08:34:21.939Z,14.36
2022-10-05T08:37:01.584Z,14.41
2022-10-05T08:39:32.765Z,14.47
2022-10-05T08:42:27.432Z,14.53
2022-10-05T08:45:23.470Z,14.58
2022-10-05T08:48:12.593Z,14.64
2022-10-05T08:51:14.024Z,14.68
2022-10-05T08:54:09.523Z,14.76
2022-10-05T08:56:42.859Z,14.78
2022-10-05T08:59:42.600Z,14.87
2022-10-05T09:02:21.456Z,14.91
2022-10-05T09:05:11.219Z,14.96
2022-10-05T09:08:04.544Z,15.00
2022-10-05T09:10:57.828Z,15.07
2022-10-05T09:13:41.939Z,15.13
2022-10-05T09:16:24.465Z,15.18
2022-10-05T09:19:11.768Z,15.23
2022-10-05T09:21:42.842Z,15.29
2022-10-05T09:24:23.645Z,15.35
2022-10-05T09:27:01.810Z,15.40
2022-10-05T09:30:02.712Z,15.48
2022-10-05T09:33:00.076Z,15.54
2022-10-05T09:35:57.971Z,15.60
2022-10-05T09:38:33.604Z,15.62
2022-10-05T09:41:25.011Z,15.74
2022-10-05T09:44:13.636Z,15.79
2022-10-05T09:46:55.882Z,15.84
2022-10-05T09:49:52.099Z,15.88
2022-10-05T09:52:38.969Z,15.93
2022-10-05T09:55:34.263Z,16.02
2022-10-05T09:58:40.216Z,16.06
2022-10-05T10:01:33.203Z,16.09
2022-10-05T10:04:29.624Z,16.15
2022-10-05T10:07:44.601Z,16.25
2022-10-05T10:10:44.983Z,16.30
2022-10-05T10:13:29.921Z,16.32
2022-10-05T10:16:11.988Z,16.39
2022-10-05T10:18:54.189Z,16.46
2022-10-05T10:21:37.615Z,16.47
2022-10-05T10:24:16.975Z,16.52
2022-10-05T10:27:01.133Z,16.57
2022-10-05T10:29:55.611Z,16.58
2022-10-05T10:32:53.156Z,16.71
2022-10-05T10:35:33.679Z,16.74
2022-10-05T10:38:45.080Z,16.79
2022-10-05T10:41:57.489Z,16.78
2022-10-05T10:44:52.305Z,16.87
2022-10-05T10:47:40.237Z,16.91
2022-10-05T10:50:45.410Z,16.97
2022-10-05T10:53:29.812Z,17.04
2022-10-05T10:56:16.114Z,17.08
2022-10-05T10:59:21.284Z,17.16
2022-10-05T11:02:08.869Z,17.25
2022-10-05T11:05:03.125Z,17.24
2022-10-05T11:08:02.064Z,17.28
2022-10-05T11:11:05.481Z,17.36
2022-10-05T11:14:04.650Z,17.40
2022-10-05T11:17:10.794Z,17.41
2022-10-05T11:20:03.063Z,17.48
2022-10-05T11:22:45.435Z,17.50
2022-10-05T11:25:45.560Z,17.57
2022-10-05T11:28:50.787Z,17.69
2022-10-05T11:31:37.059Z,17.70
2022-10-05T11:34:34.473Z,17.79
2022-10-05T11:37:46.674Z,17.85
2022-10-05T11:40:47.628Z,17.87
2022-10-05T11:43:38.879Z,17.88
2022-10-05T11:46:17.962Z,18.01
2022-10-05T11:49:01.410Z,17.99
2022-10-05T11:51:40.258Z,18.01
2022-10-05T11:54:22.493Z,18.06
2022-10-05T11:56:56.727Z,18.04
2022-10-05T11:59:34.503Z,18.07
2022-10-05T12:02:27.149Z,18.08
2022-10-05T12:05:10.732Z,18.07
2022-10-05T12:07:46.891Z,18.02
2022-10-05T12:10:28.975Z,18.07
2022-10-05T12:13:09.571Z,18.17
2022-10-05T12:15:45.929Z,18.08
2022-10-05T12:18:20.071Z,18.07
2022-10-05T12:20:54.120Z,18.04
2022-10-05T12:23:28.618Z,18.05
2022-10-05T12:26:05.178Z,18.11
2022-10-05T12:28:38.776Z,18.10
2022-10-05T12:31:21.750Z,18.04
2022-10-05T12:33:58.569Z,18.07
2022-10-05T12:36:59.271Z,18.11
2022-10-05T12:39:29.800Z,18.08
2022-10-05T12:42:06.405Z,18.12
2022-10-05T12:44:52.542Z,18.10
2022-10-05T12:47:33.408Z,18.14
2022-10-05T12:50:20.685Z,18.15
2022-10-05T12:53:24.792Z,18.20
2022-10-05T12:55:58.871Z,18.17
2022-10-05T12:58:35.715Z,18.22
2022-10-05T13:01:12.939Z,18.20
2022-10-05T13:03:46.988Z,18.22
2022-10-05T13:06:22.082Z,18.21
2022-10-05T13:08:54.735Z,18.28
2022-10-05T13:11:29.530Z,18.31
2022-10-05T13:14:09.072Z,18.33
2022-10-05T13:16:44.876Z,18.34
2022-10-05T13:19:24.123Z,18.42
2022-10-05T13:22:05.380Z,18.49
2022-10-05T13:24:41.333Z,18.51
2022-10-05T13:27:17.320Z,18.52
2022-10-05T13:29:54.423Z,18.56
2022-10-05T13:32:26.000Z,18.68
2022-10-05T13:35:09.198Z,18.76
2022-10-05T13:37:44.854Z,18.68
2022-10-05T13:40:21.769Z,18.73
2022-10-05T13:42:59.550Z,18.81
2022-10-05T13:45:32.318Z,18.80
2022-10-05T13:48:15.343Z,18.89
2022-10-05T13:50:51.989Z,18.89
2022-10-05T13:53:26.470Z,18.93
2022-10-05T13:56:00.018Z,19.00
2022-10-05T13:58:37.420Z,19.10
2022-10-05T14:01:14.277Z,19.08
2022-10-05T14:03:42.320Z,19.11
2022-10-05T14:06:14.930Z,19.08
2022-10-05T14:08:52.162Z,19.10
2022-10-05T14:11:27.713Z,19.14
2022-10-05T14:14:05.435Z,19.12
2022-10-05T14:16:35.377Z,19.12
2022-10-05T14:19:20.004Z,19.18
2022-10-05T14:21:55.622Z,19.17
2022-10-05T14:24:43.691Z,19.14
2022-10-05T14:27:21.391Z,19.14
2022-10-05T14:29:56.722Z,19.23
2022-10-05T14:32:26.972Z,19.14
2022-10-05T14:35:06.065Z,19.17
2022-10-05T14:37:47.049Z,19.14
2022-10-05T14:40:38.852Z,19.15
2022-10-05T14:43:19.897Z,19.15
2022-10-05T14:45:56.054Z,19.15
2022-10-05T14:48:25.101Z,19.13
2022-10-05T14:50:55.433Z,19.10
2022-10-05T14:53:26.146Z,19.11
2022-10-05T14:56:07.228Z,19.10
2022-10-05T14:58:53.494Z,19.08
2022-10-05T15:01:27.226Z,19.05
2022-10-05T15:04:05.332Z,19.04
2022-10-05T15:06:38.186Z,19.05
2022-10-05T15:09:28.120Z,19.05
2022-10-05T15:11:58.943Z,19.06
2022-10-05T15:14:31.702Z,19.04
2022-10-05T15:17:03.123Z,19.02
2022-10-05T15:19:44.946Z,19.01
2022-10-05T15:22:25.871Z,19.02
2022-10-05T15:25:04.116Z,19.00
2022-10-05T15:27:43.499Z,19.04
2022-10-05T15:30:13.756Z,19.01
2022-10-05T15:32:58.188Z,19.06
2022-10-05T15:35:46.495Z,19.02
2022-10-05T15:38:20.802Z,19.05
2022-10-05T15:40:59.477Z,19.07
2022-10-05T15:43:41.767Z,19.05
2022-10-05T15:46:13.924Z,19.02
2022-10-05T15:48:50.227Z,19.02
2022-10-05T15:51:38.410Z,19.03
2022-10-05T15:54:32.617Z,18.99
2022-10-05T15:57:11.793Z,18.98
2022-10-05T15:59:48.493Z,18.95
2022-10-05T16:02:20.779Z,18.93
2022-10-05T16:04:59.989Z,18.92
2022-10-05T16:07:55.835Z,18.95
2022-10-05T16:10:24.968Z,18.85
2022-10-05T16:13:06.163Z,18.83
2022-10-05T16:15:38.243Z,18.78
2022-10-05T16:18:33.966Z,18.78
2022-10-05T16:21:14.019Z,18.73
2022-10-05T16:23:54.258Z,18.66
2022-10-05T16:26:34.171Z,18.64
2022-10-05T16:29:09.589Z,18.60
2022-10-05T16:31:46.434Z,18.57
2022-10-05T16:34:32.432Z,18.53
2022-10-05T16:37:09.728Z,18.51
2022-10-05T16:39:49.705Z,18.47
2022-10-05T16:42:29.000Z,18.45
2022-10-05T16:45:06.660Z,18.43
2022-10-05T16:47:44.009Z,18.39
2022-10-05T16:50:22.669Z,18.35
2022-10-05T16:52:57.167Z,18.30
2022-10-05T16:55:33.617Z,18.28
2022-10-05T16:58:05.964Z,18.25
2022-10-05T17:00:51.861Z,18.22
2022-10-05T17:03:34.645Z,18.19
2022-10-05T17:06:40.183Z,18.20
2022-10-05T17:09:46.752Z,18.17
2022-10-05T17:12:29.316Z,18.15
2022-10-05T17:15:10.264Z,18.13
2022-10-05T17:17:52.933Z,18.10
2022-10-05T17:20:30.983Z,18.11
2022-10-05T17:23:05.027Z,18.09
2022-10-05T17:25:43.846Z,18.08
2022-10-05T17:28:24.333Z,18.05
2022-10-05T17:31:09.277Z,18.03
2022-10-05T17:34:07.817Z,18.02
2022-10-05T17:36:45.198Z,17.97
2022-10-05T17:39:16.490Z,17.92
2022-10-05T17:41:44.426Z,17.90
2022-10-05T17:44:24.344Z,17.85
2022-10-05T17:46:55.967Z,17.83
2022-10-05T17:49:46.232Z,17.80
2022-10-05T17:52:43.702Z,17.73
2022-10-05T17:55:46.996Z,17.69
2022-10-05T17:59:00.744Z,17.63
2022-10-05T18:01:32.422Z,17.61
2022-10-05T18:04:38.576Z,17.58
2022-10-05T18:07:30.120Z,17.59
2022-10-05T18:10:01.314Z,17.62
2022-10-05T18:12:42.333Z,17.69
2022-10-05T18:15:48.579Z,17.69
2022-10-05T18:18:38.629Z,17.79
2022-10-05T18:21:20.344Z,17.76
2022-10-05T18:24:00.823Z,17.73
2022-10-05T18:26:38.571Z,17.79
2022-10-05T18:29:40.485Z,17.77
2022-10-05T18:32:20.726Z,17.84
2022-10-05T18:34:59.734Z,17.78
2022-10-05T18:37:43.470Z,17.78
2022-10-05T18:40:25.737Z,17.79
2022-10-05T18:43:02.408Z,17.79
2022-10-05T18:45:38.319Z,17.76
2022-10-05T18:48:21.790Z,17.76
2022-10-05T18:50:56.454Z,17.75
2022-10-05T18:53:37.057Z,17.78
2022-10-05T18:56:18.386Z,17.76
2022-10-05T18:58:57.070Z,17.75
2022-10-05T19:01:50.863Z,17.76
2022-10-05T19:04:28.353Z,17.74
2022-10-05T19:07:07.318Z,17.73
2022-10-05T19:09:50.235Z,17.74
2022-10-05T19:12:31.064Z,17.74
2022-10-05T19:15:07.324Z,17.72
2022-10-05T19:17:55.656Z,17.70
2022-10-05T19:20:29.980Z,17.68
2022-10-05T19:23:14.833Z,17.73
2022-10-05T19:25:53.001Z,17.71
2022-10-05T19:28:29.353Z,17.70
2022-10-05T19:31:14.626Z,17.70
2022-10-05T19:33:56.786Z,17.65
2022-10-05T19:36:32.213Z,17.66
2022-10-05T19:39:07.733Z,17.62
2022-10-05T19:41:52.802Z,17.57
2022-10-05T19:44:32.002Z,17.54
2022-10-05T19:47:06.637Z,17.52
2022-10-05T19:49:42.220Z,17.51
2022-10-05T19:52:20.997Z,17.49
2022-10-05T19:55:01.438Z,17.46
2022-10-05T19:57:31.298Z,17.44
2022-10-05T19:59:59.598Z,17.44
2022-10-05T20:02:28.115Z,17.45
2022-10-05T20:05:07.282Z,17.44
2022-10-05T20:07:36.197Z,17.47
2022-10-05T20:10:24.640Z,17.49
2022-10-05T20:12:55.929Z,17.47
2022-10-05T20:15:42.882Z,17.47
2022-10-05T20:18:54.712Z,17.54
2022-10-05T20:21:43.662Z,17.53
2022-10-05T20:24:13.787Z,17.55
2022-10-05T20:27:01.601Z,17.58
2022-10-05T20:29:33.022Z,17.60
2022-10-05T20:32:01.716Z,17.57
2022-10-05T20:34:29.408Z,17.57
2022-10-05T20:36:57.009Z,17.61
2022-10-05T20:39:24.557Z,17.63
2022-10-05T20:41:52.401Z,17.63
2022-10-05T20:44:20.017Z,17.65
2022-10-05T20:46:49.090Z,17.65
2022-10-05T20:49:16.707Z,17.71
2022-10-05T20:51:44.573Z,17.74
2022-10-05T20:54:12.230Z,17.71
2022-10-05T20:56:42.505Z,17.75
2022-10-05T20:59:10.231Z,17.76
2022-10-05T21:01:37.790Z,17.74
2022-10-05T21:04:07.886Z,17.75
2022-10-05T21:06:35.515Z,17.79
2022-10-05T21:09:03.108Z,17.78
2022-10-05T21:11:30.688Z,17.82
2022-10-05T21:14:00.998Z,17.83
2022-10-05T21:16:33.646Z,17.82
2022-10-05T21:19:01.283Z,17.87
2022-10-05T21:21:30.279Z,17.90
2022-10-05T21:24:00.180Z,17.91
2022-10-05T21:26:28.963Z,17.96
2022-10-05T21:28:57.025Z,17.92
2022-10-05T21:31:25.132Z,17.91
2022-10-05T21:33:52.888Z,17.97
2022-10-05T21:36:23.925Z,17.95
2022-10-05T21:38:54.443Z,18.08
2022-10-05T21:41:22.913Z,18.02
2022-10-05T21:43:50.571Z,18.03
2022-10-05T21:46:20.237Z,18.02
2022-10-05T21:48:49.158Z,18.02
2022-10-05T21:51:18.810Z,18.02
2022-10-05T21:53:50.961Z,18.01
2022-10-05T21:56:23.476Z,18.03
2022-10-05T21:58:51.966Z,18.03
2022-10-05T22:01:22.620Z,18.03
2022-10-05T22:03:50.626Z,18.06
2022-10-05T22:06:18.226Z,18.04
2022-10-05T22:08:45.940Z,18.05
2022-10-05T22:11:16.051Z,18.01
2022-10-05T22:13:48.390Z,18.03
2022-10-05T22:16:18.199Z,18.01
2022-10-05T22:18:46.380Z,18.03
2022-10-05T22:21:15.169Z,18.14
2022-10-05T22:23:44.956Z,18.11
2022-10-05T22:26:16.656Z,18.07
2022-10-05T22:28:46.810Z,18.04
2022-10-05T22:31:15.015Z,18.06
2022-10-05T22:33:42.604Z,18.04
2022-10-05T22:36:10.772Z,18.04
2022-10-05T22:38:38.643Z,18.03
2022-10-05T22:41:10.769Z,18.06
2022-10-05T22:43:38.951Z,18.08
2022-10-05T22:46:13.179Z,18.00
2022-10-05T22:48:41.556Z,17.99
2022-10-05T22:51:09.328Z,18.00
2022-10-05T22:53:37.042Z,18.09
2022-10-05T22:56:06.097Z,17.99
2022-10-05T22:58:33.839Z,17.83
2022-10-05T23:01:03.573Z,17.72
2022-10-05T23:03:33.498Z,17.39
2022-10-05T23:06:03.611Z,17.04
2022-10-05T23:08:32.177Z,16.73
2022-10-05T23:11:03.434Z,16.48
2022-10-05T23:13:31.581Z,16.25
2022-10-05T23:15:59.266Z,16.13
2022-10-05T23:18:27.419Z,15.95
2022-10-05T23:20:57.264Z,15.76
2022-10-05T23:23:25.455Z,15.57
2022-10-05T23:25:53.003Z,15.45
2022-10-05T23:28:20.679Z,15.33
2022-10-05T23:30:48.319Z,15.23
2022-10-05T23:33:16.198Z,15.13
2022-10-05T23:35:43.759Z,15.09
2022-10-05T23:38:13.080Z,15.10
2022-10-05T23:40:40.886Z,15.02
2022-10-05T23:43:08.481Z,14.99
2022-10-05T23:45:36.131Z,14.89
2022-10-05T23:48:03.715Z,14.84
2022-10-05T23:50:31.312Z,14.81
2022-10-05T23:52:58.927Z,14.79
2022-10-05T23:55:27.893Z,14.77
2022-10-05T23:57:55.500Z,14.77
